createdAt,value
2018-07-07T00:00:05.789Z,982.28
2018-07-07T00:01:05.753Z,982.11
2018-07-07T00:02:05.847Z,982.31
2018-07-07T00:03:05.531Z,982.28
2018-07-07T00:04:05.431Z,982.31
2018-07-07T00:05:04.988Z,982.20
2018-07-07T00:06:05.142Z,982.14
2018-07-07T00:07:05.461Z,982.23
2018-07-07T00:08:05.866Z,982.31
2018-07-07T00:09:05.137Z,982.34
2018-07-07T00:10:04.853Z,982.26
2018-07-07T00:11:05.150Z,982.29
2018-07-07T00:12:05.460Z,982.37
2018-07-07T00:13:05.180Z,982.35
2018-07-07T00:14:10.009Z,982.40
2018-07-07T00:15:05.079Z,982.29
2018-07-07T00:16:05.370Z,982.26
2018-07-07T00:17:05.484Z,982.32
2018-07-07T00:18:05.659Z,982.32
2018-07-07T00:19:05.064Z,982.49
2018-07-07T00:20:05.799Z,982.29
2018-07-07T00:21:06.922Z,982.26
2018-07-07T00:22:06.199Z,982.38
2018-07-07T00:23:05.165Z,982.21
2018-07-07T00:24:05.375Z,982.35
2018-07-07T00:25:05.814Z,982.35
2018-07-07T00:26:04.906Z,982.33
2018-07-07T00:27:05.747Z,982.30
2018-07-07T00:28:05.595Z,982.35
2018-07-07T00:29:05.824Z,982.33
2018-07-07T00:30:06.214Z,982.38
2018-07-07T00:31:05.238Z,982.44
2018-07-07T00:32:05.668Z,982.39
2018-07-07T00:33:05.029Z,982.33
2018-07-07T00:34:05.496Z,982.47
2018-07-07T00:35:04.969Z,982.33
2018-07-07T00:36:04.928Z,982.39
2018-07-07T00:37:05.735Z,982.30
2018-07-07T00:38:05.143Z,982.45
2018-07-07T00:39:05.801Z,982.39
2018-07-07T00:40:05.039Z,982.39
2018-07-07T00:41:05.326Z,982.45
2018-07-07T00:42:05.733Z,982.36
2018-07-07T00:43:04.903Z,982.48
2018-07-07T00:44:05.541Z,982.39
2018-07-07T00:45:05.032Z,982.28
2018-07-07T00:46:05.645Z,982.31
2018-07-07T00:47:04.953Z,982.45
2018-07-07T00:48:04.874Z,982.42
2018-07-07T00:49:05.401Z,982.48
2018-07-07T00:50:05.318Z,982.43
2018-07-07T00:51:05.353Z,982.43
2018-07-07T00:52:05.463Z,982.43
2018-07-07T00:53:05.402Z,982.34
2018-07-07T00:54:05.550Z,982.43
2018-07-07T00:55:05.422Z,982.37
2018-07-07T00:56:05.831Z,982.46
2018-07-07T00:57:05.268Z,982.49
2018-07-07T00:58:05.300Z,982.49
2018-07-07T00:59:05.313Z,982.52
2018-07-07T01:00:05.083Z,982.46
2018-07-07T01:01:05.201Z,982.35
2018-07-07T01:02:05.018Z,982.49
2018-07-07T01:03:04.848Z,982.41
2018-07-07T01:04:05.695Z,982.29
2018-07-07T01:05:05.192Z,982.38
2018-07-07T01:06:05.046Z,982.44
2018-07-07T01:07:05.283Z,982.44
2018-07-07T01:08:06.284Z,982.52
2018-07-07T01:09:05.442Z,982.38
2018-07-07T01:10:05.593Z,982.38
2018-07-07T01:11:05.423Z,982.52
2018-07-07T01:12:05.392Z,982.35
2018-07-07T01:13:05.644Z,982.44
2018-07-07T01:14:05.821Z,982.50
2018-07-07T01:15:05.888Z,982.32
2018-07-07T01:16:05.408Z,982.41
2018-07-07T01:17:10.920Z,982.50
2018-07-07T01:18:06.179Z,982.53
2018-07-07T01:19:05.282Z,982.44
2018-07-07T01:20:05.658Z,982.47
2018-07-07T01:21:05.002Z,982.50
2018-07-07T01:22:10.597Z,982.50
2018-07-07T01:23:09.929Z,982.50
2018-07-07T01:24:05.719Z,982.41
2018-07-07T01:25:05.776Z,982.50
2018-07-07T01:26:05.371Z,982.53
2018-07-07T01:27:05.661Z,982.59
2018-07-07T01:28:05.038Z,982.42
2018-07-07T01:29:05.229Z,982.59
2018-07-07T01:30:05.582Z,982.39
2018-07-07T01:31:05.136Z,982.56
2018-07-07T01:32:05.601Z,982.62
2018-07-07T01:33:04.874Z,982.54
2018-07-07T01:34:06.136Z,982.59
2018-07-07T01:35:05.869Z,982.45
2018-07-07T01:36:05.342Z,982.51
2018-07-07T01:37:05.094Z,982.57
2018-07-07T01:38:05.418Z,982.42
2018-07-07T01:39:04.856Z,982.57
2018-07-07T01:40:05.058Z,982.54
2018-07-07T01:41:05.189Z,982.68
2018-07-07T01:42:04.940Z,982.51
2018-07-07T01:43:05.834Z,982.51
2018-07-07T01:44:06.590Z,982.63
2018-07-07T01:45:05.376Z,982.74
2018-07-07T01:46:05.519Z,982.63
2018-07-07T01:47:05.691Z,982.57
2018-07-07T01:48:04.902Z,982.60
2018-07-07T01:49:05.400Z,982.52
2018-07-07T01:50:05.626Z,982.57
2018-07-07T01:51:05.617Z,982.55
2018-07-07T01:52:05.794Z,982.52
2018-07-07T01:53:05.233Z,982.49
2018-07-07T01:54:05.479Z,982.43
2018-07-07T01:55:06.226Z,982.43
2018-07-07T01:56:05.220Z,982.61
2018-07-07T01:57:05.579Z,982.43
2018-07-07T01:58:05.262Z,982.52
2018-07-07T01:59:05.472Z,982.52
2018-07-07T02:00:04.907Z,982.35
2018-07-07T02:01:05.870Z,982.41
2018-07-07T02:02:05.833Z,982.47
2018-07-07T02:03:05.065Z,982.44
2018-07-07T02:04:05.526Z,982.58
2018-07-07T02:05:05.750Z,982.53
2018-07-07T02:06:05.654Z,982.53
2018-07-07T02:07:05.793Z,982.56
2018-07-07T02:08:04.864Z,982.47
2018-07-07T02:09:04.873Z,982.53
2018-07-07T02:10:06.113Z,982.59
2018-07-07T02:11:04.879Z,982.50
2018-07-07T02:12:05.620Z,982.62
2018-07-07T02:13:05.084Z,982.59
2018-07-07T02:14:05.811Z,982.56
2018-07-07T02:15:05.246Z,982.56
2018-07-07T02:16:05.556Z,982.53
2018-07-07T02:17:04.956Z,982.59
2018-07-07T02:18:05.679Z,982.51
2018-07-07T02:19:06.139Z,982.39
2018-07-07T02:20:05.930Z,982.54
2018-07-07T02:21:04.883Z,982.57
2018-07-07T02:22:05.223Z,982.45
2018-07-07T02:23:05.671Z,982.54
2018-07-07T02:24:05.704Z,982.46
2018-07-07T02:25:05.036Z,982.60
2018-07-07T02:26:05.599Z,982.54
2018-07-07T02:27:05.534Z,982.54
2018-07-07T02:28:05.764Z,982.69
2018-07-07T02:29:06.666Z,982.58
2018-07-07T02:30:04.851Z,982.58
2018-07-07T02:31:05.208Z,982.55
2018-07-07T02:32:06.678Z,982.49
2018-07-07T02:33:05.721Z,982.52
2018-07-07T02:34:05.346Z,982.55
2018-07-07T02:35:06.969Z,982.61
2018-07-07T02:36:05.750Z,982.72
2018-07-07T02:37:05.200Z,982.55
2018-07-07T02:38:05.153Z,982.55
2018-07-07T02:39:05.536Z,982.58
2018-07-07T02:40:05.111Z,982.49
2018-07-07T02:41:05.050Z,982.66
2018-07-07T02:42:05.587Z,982.55
2018-07-07T02:43:05.397Z,982.67
2018-07-07T02:44:05.755Z,982.69
2018-07-07T02:45:05.747Z,982.58
2018-07-07T02:46:05.474Z,982.58
2018-07-07T02:47:05.757Z,982.58
2018-07-07T02:48:05.089Z,982.64
2018-07-07T02:49:04.998Z,982.64
2018-07-07T02:50:05.148Z,982.55
2018-07-07T02:51:05.518Z,982.67
2018-07-07T02:52:05.866Z,982.67
2018-07-07T02:53:04.976Z,982.53
2018-07-07T02:54:05.429Z,982.58
2018-07-07T02:55:05.825Z,982.58
2018-07-07T02:56:05.743Z,982.61
2018-07-07T02:57:06.612Z,982.64
2018-07-07T02:58:04.901Z,982.61
2018-07-07T02:59:05.391Z,982.86
2018-07-07T03:00:05.123Z,982.78
2018-07-07T03:01:05.489Z,982.59
2018-07-07T03:02:05.479Z,982.84
2018-07-07T03:03:04.974Z,982.87
2018-07-07T03:04:05.593Z,982.78
2018-07-07T03:05:05.295Z,982.81
2018-07-07T03:06:05.150Z,982.84
2018-07-07T03:07:05.768Z,982.81
2018-07-07T03:08:06.395Z,982.78
2018-07-07T03:09:05.428Z,982.87
2018-07-07T03:10:06.852Z,982.93
2018-07-07T03:11:05.353Z,982.95
2018-07-07T03:12:05.501Z,982.93
2018-07-07T03:13:05.581Z,982.87
2018-07-07T03:14:05.793Z,982.79
2018-07-07T03:15:04.898Z,982.68
2018-07-07T03:16:04.955Z,982.74
2018-07-07T03:17:05.577Z,982.71
2018-07-07T03:18:05.572Z,982.65
2018-07-07T03:19:05.385Z,982.82
2018-07-07T03:20:05.440Z,982.85
2018-07-07T03:21:05.427Z,982.79
2018-07-07T03:22:05.006Z,982.85
2018-07-07T03:23:05.230Z,982.74
2018-07-07T03:24:05.726Z,982.79
2018-07-07T03:25:05.192Z,982.74
2018-07-07T03:26:04.937Z,982.74
2018-07-07T03:27:05.744Z,982.85
2018-07-07T03:28:05.683Z,982.93
2018-07-07T03:29:05.485Z,982.74
2018-07-07T03:30:06.268Z,982.93
2018-07-07T03:31:05.539Z,982.85
2018-07-07T03:32:05.911Z,982.74
2018-07-07T03:33:05.509Z,982.82
2018-07-07T03:34:05.481Z,982.82
2018-07-07T03:35:05.795Z,982.93
2018-07-07T03:36:05.100Z,982.88
2018-07-07T03:37:05.293Z,983.02
2018-07-07T03:38:05.284Z,982.99
2018-07-07T03:39:05.735Z,982.96
2018-07-07T03:40:05.178Z,983.08
2018-07-07T03:41:05.743Z,983.02
2018-07-07T03:42:05.303Z,983.08
2018-07-07T03:43:05.069Z,983.08
2018-07-07T03:44:06.188Z,983.14
2018-07-07T03:45:05.510Z,982.96
2018-07-07T03:46:06.280Z,983.08
2018-07-07T03:47:05.700Z,982.99
2018-07-07T03:48:04.852Z,983.08
2018-07-07T03:49:05.695Z,982.99
2018-07-07T03:50:05.273Z,983.08
2018-07-07T03:51:05.213Z,982.99
2018-07-07T03:52:05.062Z,982.99
2018-07-07T03:53:05.490Z,982.99
2018-07-07T03:54:05.503Z,983.13
2018-07-07T03:55:05.078Z,983.10
2018-07-07T03:56:05.307Z,983.13
2018-07-07T03:57:05.300Z,982.95
2018-07-07T03:58:05.571Z,982.98
2018-07-07T03:59:04.967Z,982.95
2018-07-07T04:00:04.883Z,982.92
2018-07-07T04:01:10.734Z,983.08
2018-07-07T04:02:05.031Z,983.08
2018-07-07T04:03:05.668Z,983.10
2018-07-07T04:04:05.337Z,982.98
2018-07-07T04:05:05.268Z,982.95
2018-07-07T04:06:04.901Z,983.03
2018-07-07T04:07:05.468Z,983.02
2018-07-07T04:08:05.799Z,982.99
2018-07-07T04:09:05.147Z,983.04
2018-07-07T04:10:05.822Z,983.09
2018-07-07T04:11:05.112Z,983.02
2018-07-07T04:12:06.035Z,983.02
2018-07-07T04:13:05.221Z,983.13
2018-07-07T04:14:05.576Z,983.12
2018-07-07T04:15:04.966Z,983.14
2018-07-07T04:16:05.486Z,983.14
2018-07-07T04:17:04.939Z,983.13
2018-07-07T04:18:05.413Z,983.10
2018-07-07T04:19:05.409Z,983.01
2018-07-07T04:20:05.735Z,983.20
2018-07-07T04:21:05.252Z,983.14
2018-07-07T04:22:06.905Z,983.31
2018-07-07T04:23:06.006Z,983.19
2018-07-07T04:24:05.359Z,983.24
2018-07-07T04:25:06.364Z,983.09
2018-07-07T04:26:05.606Z,983.23
2018-07-07T04:27:05.538Z,983.14
2018-07-07T04:28:05.240Z,983.16
2018-07-07T04:29:04.932Z,983.27
2018-07-07T04:30:05.330Z,983.15
2018-07-07T04:31:05.318Z,983.26
2018-07-07T04:32:06.513Z,983.23
2018-07-07T04:33:05.577Z,983.22
2018-07-07T04:34:05.702Z,983.27
2018-07-07T04:35:04.997Z,983.21
2018-07-07T04:36:05.042Z,983.15
2018-07-07T04:37:05.229Z,983.29
2018-07-07T04:38:05.232Z,983.21
2018-07-07T04:39:05.497Z,983.15
2018-07-07T04:40:05.445Z,983.26
2018-07-07T04:41:05.432Z,983.23
2018-07-07T04:42:05.679Z,983.29
2018-07-07T04:43:05.389Z,983.26
2018-07-07T04:44:05.592Z,983.14
2018-07-07T04:45:05.142Z,983.25
2018-07-07T04:46:05.855Z,983.28
2018-07-07T04:47:05.094Z,983.30
2018-07-07T04:48:06.018Z,983.33
2018-07-07T04:49:05.834Z,983.21
2018-07-07T04:50:05.594Z,983.35
2018-07-07T04:51:05.630Z,983.31
2018-07-07T04:52:05.008Z,983.28
2018-07-07T04:53:04.933Z,983.52
2018-07-07T04:54:05.638Z,983.35
2018-07-07T04:55:05.169Z,983.43
2018-07-07T04:56:05.050Z,983.37
2018-07-07T04:57:05.839Z,983.32
2018-07-07T04:58:05.350Z,983.45
2018-07-07T04:59:05.662Z,983.35
2018-07-07T05:00:05.267Z,983.22
2018-07-07T05:01:05.680Z,983.49
2018-07-07T05:02:05.195Z,983.43
2018-07-07T05:03:05.600Z,983.35
2018-07-07T05:04:05.148Z,983.36
2018-07-07T05:05:05.770Z,983.34
2018-07-07T05:06:05.071Z,983.47
2018-07-07T05:07:05.735Z,983.38
2018-07-07T05:08:05.459Z,983.41
2018-07-07T05:09:05.728Z,983.33
2018-07-07T05:10:05.239Z,983.43
2018-07-07T05:11:05.709Z,983.37
2018-07-07T05:12:05.551Z,983.49
2018-07-07T05:13:05.837Z,983.40
2018-07-07T05:14:05.214Z,983.43
2018-07-07T05:15:05.438Z,983.46
2018-07-07T05:16:05.500Z,983.43
2018-07-07T05:17:05.202Z,983.55
2018-07-07T05:18:05.549Z,983.49
2018-07-07T05:19:05.248Z,983.40
2018-07-07T05:20:05.779Z,983.40
2018-07-07T05:21:05.452Z,983.43
2018-07-07T05:22:05.241Z,983.40
2018-07-07T05:23:05.102Z,983.45
2018-07-07T05:24:04.859Z,983.48
2018-07-07T05:25:05.157Z,983.54
2018-07-07T05:26:05.066Z,983.60
2018-07-07T05:27:05.484Z,983.45
2018-07-07T05:28:05.376Z,983.54
2018-07-07T05:29:05.628Z,983.54
2018-07-07T05:30:05.414Z,983.54
2018-07-07T05:31:05.586Z,983.57
2018-07-07T05:32:06.052Z,983.51
2018-07-07T05:33:05.055Z,983.74
2018-07-07T05:34:05.860Z,983.51
2018-07-07T05:35:05.187Z,983.56
2018-07-07T05:36:05.551Z,983.59
2018-07-07T05:37:05.034Z,983.61
2018-07-07T05:38:05.665Z,983.70
2018-07-07T05:39:05.719Z,983.58
2018-07-07T05:40:05.517Z,983.60
2018-07-07T05:41:05.201Z,983.66
2018-07-07T05:42:06.016Z,983.77
2018-07-07T05:43:05.815Z,983.54
2018-07-07T05:44:05.147Z,983.65
2018-07-07T05:45:05.151Z,983.70
2018-07-07T05:46:05.394Z,983.76
2018-07-07T05:47:10.247Z,983.58
2018-07-07T05:48:04.942Z,983.75
2018-07-07T05:49:10.468Z,983.69
2018-07-07T05:50:05.511Z,983.69
2018-07-07T05:51:05.027Z,983.66
2018-07-07T05:52:04.864Z,983.66
2018-07-07T05:53:05.493Z,983.62
2018-07-07T05:54:05.008Z,983.71
2018-07-07T05:55:05.419Z,983.65
2018-07-07T05:56:05.561Z,983.65
2018-07-07T05:57:05.615Z,983.61
2018-07-07T05:58:05.837Z,983.52
2018-07-07T05:59:05.950Z,983.55
2018-07-07T06:00:05.359Z,983.55
2018-07-07T06:01:05.394Z,983.57
2018-07-07T06:02:05.874Z,983.66
2018-07-07T06:03:05.246Z,983.63
2018-07-07T06:04:05.658Z,983.71
2018-07-07T06:05:05.333Z,983.62
2018-07-07T06:06:05.144Z,983.71
2018-07-07T06:07:05.686Z,983.56
2018-07-07T06:08:07.023Z,983.77
2018-07-07T06:09:05.669Z,983.53
2018-07-07T06:10:05.746Z,983.59
2018-07-07T06:11:06.086Z,983.65
2018-07-07T06:12:05.390Z,983.62
2018-07-07T06:13:05.577Z,983.67
2018-07-07T06:14:05.548Z,983.79
2018-07-07T06:15:05.699Z,983.64
2018-07-07T06:16:05.494Z,983.58
2018-07-07T06:17:10.498Z,983.64
2018-07-07T06:18:05.273Z,983.67
2018-07-07T06:19:05.640Z,983.58
2018-07-07T06:20:05.822Z,983.69
2018-07-07T06:21:05.426Z,983.60
2018-07-07T06:22:06.824Z,983.66
2018-07-07T06:23:05.404Z,983.63
2018-07-07T06:24:05.676Z,983.63
2018-07-07T06:25:10.420Z,983.75
2018-07-07T06:26:05.307Z,983.80
2018-07-07T06:27:05.056Z,983.63
2018-07-07T06:28:05.397Z,983.66
2018-07-07T06:29:05.417Z,983.63
2018-07-07T06:30:05.496Z,983.74
2018-07-07T06:31:05.179Z,983.68
2018-07-07T06:32:05.630Z,983.60
2018-07-07T06:33:05.418Z,983.83
2018-07-07T06:34:05.880Z,983.62
2018-07-07T06:35:05.606Z,983.59
2018-07-07T06:36:05.895Z,983.68
2018-07-07T06:37:05.908Z,983.74
2018-07-07T06:38:05.101Z,983.56
2018-07-07T06:39:05.380Z,983.62
2018-07-07T06:40:05.358Z,983.68
2018-07-07T06:41:05.730Z,983.68
2018-07-07T06:42:05.690Z,983.68
2018-07-07T06:43:05.693Z,983.65
2018-07-07T06:44:05.956Z,983.73
2018-07-07T06:45:05.233Z,983.70
2018-07-07T06:46:05.321Z,983.64
2018-07-07T06:47:05.796Z,983.64
2018-07-07T06:48:05.480Z,983.58
2018-07-07T06:49:05.671Z,983.52
2018-07-07T06:50:05.596Z,983.58
2018-07-07T06:51:05.499Z,983.55
2018-07-07T06:52:05.858Z,983.52
2018-07-07T06:53:06.292Z,983.72
2018-07-07T06:54:06.033Z,983.52
2018-07-07T06:55:05.514Z,983.58
2018-07-07T06:56:04.908Z,983.55
2018-07-07T06:57:10.577Z,983.55
2018-07-07T06:58:05.477Z,983.46
2018-07-07T06:59:05.257Z,983.52
2018-07-07T07:00:05.632Z,983.52
2018-07-07T07:01:05.331Z,983.51
2018-07-07T07:02:09.928Z,983.57
2018-07-07T07:03:05.097Z,983.63
2018-07-07T07:04:05.270Z,983.57
2018-07-07T07:05:05.721Z,983.49
2018-07-07T07:06:05.645Z,983.52
2018-07-07T07:07:05.756Z,983.46
2018-07-07T07:08:05.128Z,983.55
2018-07-07T07:09:05.386Z,983.58
2018-07-07T07:10:05.426Z,983.69
2018-07-07T07:11:05.190Z,983.57
2018-07-07T07:12:04.990Z,983.63
2018-07-07T07:13:05.189Z,983.57
2018-07-07T07:14:05.171Z,983.72
2018-07-07T07:15:06.131Z,983.69
2018-07-07T07:16:05.317Z,983.63
2018-07-07T07:17:05.841Z,983.60
2018-07-07T07:18:05.040Z,983.45
2018-07-07T07:19:05.456Z,983.63
2018-07-07T07:20:10.365Z,983.54
2018-07-07T07:21:04.926Z,983.54
2018-07-07T07:22:05.673Z,983.63
2018-07-07T07:23:05.893Z,983.57
2018-07-07T07:24:06.518Z,983.46
2018-07-07T07:25:05.228Z,983.67
2018-07-07T07:26:06.224Z,983.55
2018-07-07T07:27:06.462Z,983.46
2018-07-07T07:28:05.568Z,983.52
2018-07-07T07:29:05.450Z,983.52
2018-07-07T07:30:05.865Z,983.52
2018-07-07T07:31:05.642Z,983.46
2018-07-07T07:32:05.196Z,983.46
2018-07-07T07:33:05.950Z,983.49
2018-07-07T07:34:05.231Z,983.49
2018-07-07T07:35:04.966Z,983.55
2018-07-07T07:36:05.173Z,983.49
2018-07-07T07:37:05.761Z,983.37
2018-07-07T07:38:05.356Z,983.66
2018-07-07T07:39:05.127Z,983.46
2018-07-07T07:40:05.710Z,983.40
2018-07-07T07:41:04.913Z,983.35
2018-07-07T07:42:05.804Z,983.49
2018-07-07T07:43:04.993Z,983.46
2018-07-07T07:44:05.352Z,983.40
2018-07-07T07:45:05.752Z,983.58
2018-07-07T07:46:05.394Z,983.40
2018-07-07T07:47:05.547Z,983.64
2018-07-07T07:48:05.737Z,983.43
2018-07-07T07:49:05.767Z,983.46
2018-07-07T07:50:05.811Z,983.46
2018-07-07T07:51:05.228Z,983.49
2018-07-07T07:52:05.824Z,983.46
2018-07-07T07:53:05.441Z,983.40
2018-07-07T07:54:05.349Z,983.38
2018-07-07T07:55:05.420Z,983.38
2018-07-07T07:56:05.302Z,983.47
2018-07-07T07:57:05.480Z,983.52
2018-07-07T07:58:05.693Z,983.41
2018-07-07T07:59:05.783Z,983.21
2018-07-07T08:00:05.219Z,983.41
2018-07-07T08:01:05.866Z,983.53
2018-07-07T08:02:04.990Z,983.44
2018-07-07T08:03:04.961Z,983.38
2018-07-07T08:04:05.368Z,983.38
2018-07-07T08:05:05.761Z,983.35
2018-07-07T08:06:05.176Z,983.30
2018-07-07T08:07:05.510Z,983.44
2018-07-07T08:08:05.865Z,983.41
2018-07-07T08:09:04.893Z,983.38
2018-07-07T08:10:05.855Z,983.33
2018-07-07T08:11:05.265Z,983.44
2018-07-07T08:12:05.103Z,983.30
2018-07-07T08:13:05.658Z,983.44
2018-07-07T08:14:05.768Z,983.35
2018-07-07T08:15:05.687Z,983.38
2018-07-07T08:16:05.482Z,983.35
2018-07-07T08:17:05.618Z,983.33
2018-07-07T08:18:05.332Z,983.33
2018-07-07T08:19:04.817Z,983.30
2018-07-07T08:20:05.508Z,983.41
2018-07-07T08:21:05.243Z,983.21
2018-07-07T08:22:05.098Z,983.38
2018-07-07T08:23:05.333Z,983.24
2018-07-07T08:24:05.130Z,983.33
2018-07-07T08:25:05.433Z,983.30
2018-07-07T08:26:05.841Z,983.40
2018-07-07T08:27:10.104Z,983.33
2018-07-07T08:28:05.019Z,983.35
2018-07-07T08:29:05.207Z,983.35
2018-07-07T08:30:06.042Z,983.41
2018-07-07T08:31:10.708Z,983.44
2018-07-07T08:32:06.625Z,983.38
2018-07-07T08:33:05.161Z,983.47
2018-07-07T08:34:05.120Z,983.38
2018-07-07T08:35:05.036Z,983.41
2018-07-07T08:36:05.649Z,983.44
2018-07-07T08:37:05.750Z,983.44
2018-07-07T08:38:05.516Z,983.36
2018-07-07T08:39:06.274Z,983.53
2018-07-07T08:40:05.211Z,983.59
2018-07-07T08:41:05.281Z,983.33
2018-07-07T08:42:05.989Z,983.41
2018-07-07T08:43:05.287Z,983.41
2018-07-07T08:44:04.860Z,983.35
2018-07-07T08:45:05.758Z,983.30
2018-07-07T08:46:05.131Z,983.40
2018-07-07T08:47:06.206Z,983.37
2018-07-07T08:48:04.921Z,983.54
2018-07-07T08:49:05.501Z,983.42
2018-07-07T08:50:10.148Z,983.36
2018-07-07T08:51:05.566Z,983.39
2018-07-07T08:52:05.166Z,983.50
2018-07-07T08:53:10.932Z,983.47
2018-07-07T08:54:05.702Z,983.41
2018-07-07T08:55:05.694Z,983.41
2018-07-07T08:56:05.167Z,983.44
2018-07-07T08:57:05.027Z,983.41
2018-07-07T08:58:06.030Z,983.42
2018-07-07T08:59:05.923Z,983.45
2018-07-07T09:00:05.286Z,983.39
2018-07-07T09:01:05.565Z,983.39
2018-07-07T09:02:05.514Z,983.51
2018-07-07T09:03:05.841Z,983.34
2018-07-07T09:04:05.688Z,983.39
2018-07-07T09:05:05.082Z,983.34
2018-07-07T09:06:05.859Z,983.32
2018-07-07T09:07:05.116Z,983.52
2018-07-07T09:08:05.076Z,983.37
2018-07-07T09:09:05.750Z,983.43
2018-07-07T09:10:05.449Z,983.32
2018-07-07T09:11:05.011Z,983.46
2018-07-07T09:12:05.763Z,983.43
2018-07-07T09:13:05.216Z,983.52
2018-07-07T09:14:05.844Z,983.40
2018-07-07T09:15:05.753Z,983.46
2018-07-07T09:16:05.392Z,983.35
2018-07-07T09:17:06.308Z,983.35
2018-07-07T09:18:05.275Z,983.41
2018-07-07T09:19:05.304Z,983.33
2018-07-07T09:20:05.558Z,983.33
2018-07-07T09:21:05.529Z,983.38
2018-07-07T09:22:05.714Z,983.41
2018-07-07T09:23:05.318Z,983.12
2018-07-07T09:24:05.815Z,983.40
2018-07-07T09:25:06.017Z,983.35
2018-07-07T09:26:05.722Z,983.30
2018-07-07T09:27:05.647Z,983.40
2018-07-07T09:28:05.745Z,983.43
2018-07-07T09:29:05.740Z,983.32
2018-07-07T09:30:06.701Z,983.18
2018-07-07T09:31:05.957Z,983.37
2018-07-07T09:32:06.003Z,983.35
2018-07-07T09:33:05.877Z,983.35
2018-07-07T09:34:05.001Z,983.32
2018-07-07T09:35:05.215Z,983.26
2018-07-07T09:36:05.750Z,983.40
2018-07-07T09:37:05.151Z,983.35
2018-07-07T09:38:05.640Z,983.24
2018-07-07T09:39:05.792Z,983.24
2018-07-07T09:40:05.238Z,983.24
2018-07-07T09:41:05.791Z,983.21
2018-07-07T09:42:05.319Z,983.18
2018-07-07T09:43:04.911Z,983.18
2018-07-07T09:44:06.157Z,983.15
2018-07-07T09:45:05.624Z,983.12
2018-07-07T09:46:05.202Z,983.24
2018-07-07T09:47:05.810Z,983.21
2018-07-07T09:48:05.413Z,983.30
2018-07-07T09:49:05.863Z,983.24
2018-07-07T09:50:05.703Z,983.24
2018-07-07T09:51:10.095Z,983.27
2018-07-07T09:52:05.930Z,983.09
2018-07-07T09:53:05.330Z,983.18
2018-07-07T09:54:06.202Z,983.09
2018-07-07T09:55:05.656Z,983.12
2018-07-07T09:56:05.566Z,983.06
2018-07-07T09:57:05.408Z,983.12
2018-07-07T09:58:05.050Z,983.15
2018-07-07T09:59:04.870Z,983.09
2018-07-07T10:00:05.434Z,983.21
2018-07-07T10:01:05.191Z,983.09
2018-07-07T10:02:05.576Z,983.06
2018-07-07T10:03:05.995Z,983.09
2018-07-07T10:04:05.469Z,983.00
2018-07-07T10:05:05.738Z,983.20
2018-07-07T10:06:05.643Z,982.97
2018-07-07T10:07:05.048Z,983.05
2018-07-07T10:08:06.001Z,983.11
2018-07-07T10:09:05.959Z,982.99
2018-07-07T10:10:05.640Z,983.05
2018-07-07T10:11:05.217Z,982.99
2018-07-07T10:12:05.033Z,983.01
2018-07-07T10:13:05.178Z,983.01
2018-07-07T10:14:05.489Z,983.07
2018-07-07T10:15:05.341Z,983.04
2018-07-07T10:16:05.563Z,983.13
2018-07-07T10:17:05.826Z,983.01
2018-07-07T10:18:04.846Z,983.01
2018-07-07T10:19:05.254Z,983.13
2018-07-07T10:20:06.049Z,983.01
2018-07-07T10:21:05.240Z,982.98
2018-07-07T10:22:05.592Z,982.95
2018-07-07T10:23:07.078Z,983.01
2018-07-07T10:24:05.491Z,983.04
2018-07-07T10:25:05.760Z,983.01
2018-07-07T10:26:05.751Z,982.89
2018-07-07T10:27:05.575Z,983.04
2018-07-07T10:28:05.918Z,982.92
2018-07-07T10:29:05.138Z,982.92
2018-07-07T10:30:05.011Z,983.04
2018-07-07T10:31:05.819Z,983.04
2018-07-07T10:32:05.576Z,982.89
2018-07-07T10:33:05.736Z,983.01
2018-07-07T10:34:05.245Z,982.92
2018-07-07T10:35:10.492Z,982.98
2018-07-07T10:36:05.325Z,982.95
2018-07-07T10:37:05.006Z,982.86
2018-07-07T10:38:05.867Z,983.04
2018-07-07T10:39:05.519Z,982.89
2018-07-07T10:40:05.212Z,982.83
2018-07-07T10:41:05.599Z,982.89
2018-07-07T10:42:05.162Z,982.86
2018-07-07T10:43:04.951Z,982.89
2018-07-07T10:44:05.504Z,982.86
2018-07-07T10:45:05.099Z,982.75
2018-07-07T10:46:05.785Z,982.89
2018-07-07T10:47:05.347Z,982.94
2018-07-07T10:48:05.322Z,982.91
2018-07-07T10:49:05.721Z,982.82
2018-07-07T10:50:05.839Z,982.88
2018-07-07T10:51:05.438Z,983.03
2018-07-07T10:52:05.486Z,982.91
2018-07-07T10:53:05.116Z,982.94
2018-07-07T10:54:05.230Z,982.88
2018-07-07T10:55:05.407Z,982.79
2018-07-07T10:56:05.074Z,982.82
2018-07-07T10:57:06.027Z,982.96
2018-07-07T10:58:10.036Z,982.93
2018-07-07T10:59:05.015Z,982.79
2018-07-07T11:00:05.851Z,982.90
2018-07-07T11:01:05.391Z,982.87
2018-07-07T11:02:05.147Z,982.84
2018-07-07T11:03:05.673Z,982.70
2018-07-07T11:04:05.051Z,982.87
2018-07-07T11:05:05.890Z,982.78
2018-07-07T11:06:05.150Z,982.75
2018-07-07T11:07:05.350Z,982.69
2018-07-07T11:08:04.995Z,982.66
2018-07-07T11:09:05.104Z,982.86
2018-07-07T11:10:05.876Z,982.72
2018-07-07T11:11:05.058Z,982.75
2018-07-07T11:12:06.026Z,982.85
2018-07-07T11:13:05.922Z,982.74
2018-07-07T11:14:05.647Z,982.66
2018-07-07T11:15:06.761Z,982.82
2018-07-07T11:16:04.994Z,982.71
2018-07-07T11:17:05.702Z,982.74
2018-07-07T11:18:10.073Z,982.68
2018-07-07T11:19:04.980Z,982.59
2018-07-07T11:20:05.133Z,982.68
2018-07-07T11:21:05.079Z,982.56
2018-07-07T11:22:05.276Z,982.74
2018-07-07T11:23:05.170Z,982.65
2018-07-07T11:24:04.981Z,982.59
2018-07-07T11:25:05.257Z,982.74
2018-07-07T11:26:05.409Z,982.59
2018-07-07T11:27:08.603Z,982.56
2018-07-07T11:28:05.400Z,982.53
2018-07-07T11:29:05.093Z,982.56
2018-07-07T11:30:05.201Z,982.65
2018-07-07T11:31:05.005Z,982.73
2018-07-07T11:32:05.727Z,982.68
2018-07-07T11:33:05.411Z,982.59
2018-07-07T11:34:05.110Z,982.53
2018-07-07T11:35:05.764Z,982.68
2018-07-07T11:36:05.553Z,982.56
2018-07-07T11:37:05.931Z,982.53
2018-07-07T11:38:05.100Z,982.68
2018-07-07T11:39:05.793Z,982.65
2018-07-07T11:40:05.318Z,982.62
2018-07-07T11:41:05.103Z,982.62
2018-07-07T11:42:05.386Z,982.50
2018-07-07T11:43:05.749Z,982.53
2018-07-07T11:44:05.047Z,982.59
2018-07-07T11:45:05.020Z,982.44
2018-07-07T11:46:05.744Z,982.41
2018-07-07T11:47:04.961Z,982.53
2018-07-07T11:48:04.968Z,982.59
2018-07-07T11:49:05.264Z,982.47
2018-07-07T11:50:05.395Z,982.44
2018-07-07T11:51:05.456Z,982.47
2018-07-07T11:52:09.899Z,982.44
2018-07-07T11:53:10.898Z,982.44
2018-07-07T11:54:05.656Z,982.52
2018-07-07T11:55:05.355Z,982.46
2018-07-07T11:56:05.766Z,982.35
2018-07-07T11:57:05.661Z,982.55
2018-07-07T11:58:05.882Z,982.47
2018-07-07T11:59:05.324Z,982.58
2018-07-07T12:00:05.476Z,982.38
2018-07-07T12:01:05.257Z,982.47
2018-07-07T12:02:05.186Z,982.50
2018-07-07T12:03:05.252Z,982.50
2018-07-07T12:04:05.279Z,982.59
2018-07-07T12:05:05.337Z,982.32
2018-07-07T12:06:05.878Z,982.44
2018-07-07T12:07:05.575Z,982.36
2018-07-07T12:08:14.667Z,982.42
2018-07-07T12:09:10.737Z,982.42
2018-07-07T12:10:05.584Z,982.36
2018-07-07T12:11:05.803Z,982.42
2018-07-07T12:12:05.481Z,982.39
2018-07-07T12:13:04.885Z,982.48
2018-07-07T12:14:05.733Z,982.30
2018-07-07T12:15:10.943Z,982.36
2018-07-07T12:16:05.639Z,982.36
2018-07-07T12:17:05.152Z,982.30
2018-07-07T12:18:05.802Z,982.24
2018-07-07T12:19:04.966Z,982.36
2018-07-07T12:20:05.590Z,982.36
2018-07-07T12:21:05.466Z,982.38
2018-07-07T12:22:05.197Z,982.35
2018-07-07T12:23:05.631Z,982.26
2018-07-07T12:24:05.468Z,982.41
2018-07-07T12:25:05.001Z,982.26
2018-07-07T12:26:05.784Z,982.26
2018-07-07T12:27:05.844Z,982.29
2018-07-07T12:28:04.983Z,982.38